createdAt,value
2022-10-05T00:07:07.961Z,10.00
2022-10-05T00:09:34.371Z,10.00
2022-10-05T00:12:16.058Z,10.00
2022-10-05T00:14:44.440Z,10.00
2022-10-05T00:17:19.103Z,10.00
2022-10-05T00:19:51.165Z,10.00
2022-10-05T00:22:19.936Z,10.10
2022-10-05T00:38:12.184Z,10.10
2022-10-05T00:41:07.811Z,10.10
2022-10-05T00:43:54.534Z,10.20
2022-10-05T00:46:29.691Z,10.10
2022-10-05T00:49:26.418Z,10.10
2022-10-05T00:52:10.439Z,10.10
2022-10-05T01:14:08.385Z,10.10
2022-10-05T01:16:52.426Z,10.30
2022-10-05T01:19:40.236Z,10.20
2022-10-05T01:22:42.412Z,10.20
2022-10-05T01:25:20.936Z,10.20
2022-10-05T01:36:08.607Z,10.20
2022-10-05T01:39:01.652Z,10.10
2022-10-05T01:41:45.542Z,10.10
2022-10-05T01:44:29.213Z,10.10
2022-10-05T01:47:13.701Z,10.10
2022-10-05T01:49:57.653Z,10.00
2022-10-05T01:55:25.429Z,9.90
2022-10-05T01:57:57.907Z,9.90
2022-10-05T02:00:24.313Z,9.90
2022-10-05T02:03:00.708Z,9.90
2022-10-05T02:06:09.094Z,9.90
2022-10-05T02:08:45.019Z,9.80
2022-10-05T02:15:18.926Z,9.80
2022-10-05T02:17:52.064Z,9.70
2022-10-05T02:20:27.079Z,9.70
2022-10-05T02:22:59.454Z,9.60
2022-10-05T02:25:31.053Z,9.60
2022-10-05T02:28:05.244Z,9.60
2022-10-05T02:30:35.009Z,9.50
2022-10-05T02:33:07.836Z,9.50
2022-10-05T02:35:49.684Z,9.40
2022-10-05T02:38:28.794Z,9.40
2022-10-05T02:41:10.148Z,9.40
2022-10-05T02:43:42.490Z,9.40
2022-10-05T02:46:31.605Z,9.40
2022-10-05T02:49:16.163Z,9.40
2022-10-05T02:51:55.117Z,9.40
2022-10-05T03:31:17.559Z,9.50
2022-10-05T03:34:10.633Z,9.50
2022-10-05T03:37:09.343Z,9.50
2022-10-05T03:39:46.507Z,9.50
2022-10-05T03:42:26.681Z,9.50
2022-10-05T03:45:17.513Z,9.50
2022-10-05T04:37:50.008Z,9.30
2022-10-05T04:40:36.647Z,9.30
2022-10-05T04:43:41.539Z,9.20
2022-10-05T04:46:22.775Z,9.20
2022-10-05T04:49:03.587Z,9.20
2022-10-05T04:51:29.937Z,9.20
2022-10-05T04:54:20.676Z,9.20
2022-10-05T04:56:57.735Z,9.20
2022-10-05T05:19:45.616Z,9.30
2022-10-05T05:22:14.909Z,9.30
2022-10-05T05:25:16.494Z,9.40
2022-10-05T05:27:54.183Z,9.40
2022-10-05T05:30:26.197Z,9.50
2022-10-05T05:33:10.486Z,9.50
2022-10-05T06:27:09.523Z,10.40
2022-10-05T06:30:00.825Z,10.40
2022-10-05T06:32:37.836Z,10.50
2022-10-05T06:35:49.836Z,10.50
2022-10-05T06:38:27.217Z,10.60
2022-10-05T07:10:57.073Z,11.30
2022-10-05T07:13:42.103Z,11.20
2022-10-05T07:16:26.631Z,11.30
2022-10-05T07:19:17.652Z,11.40
2022-10-05T07:21:50.348Z,11.60
2022-10-05T07:24:32.112Z,11.70
2022-10-05T07:49:47.400Z,12.60
2022-10-05T07:52:24.397Z,12.60
2022-10-05T07:55:00.626Z,12.70
2022-10-05T07:57:42.972Z,12.70
2022-10-05T08:00:18.290Z,12.80
2022-10-05T08:02:50.346Z,12.90
2022-10-05T08:05:19.702Z,12.80
2022-10-05T08:26:38.350Z,13.20
2022-10-05T08:29:29.126Z,13.30
2022-10-05T08:31:59.824Z,13.80
2022-10-05T08:34:45.891Z,14.10
2022-10-05T08:37:26.868Z,14.10
2022-10-05T08:39:58.876Z,14.10
2022-10-05T08:59:22.310Z,14.10
2022-10-05T09:02:00.351Z,14.50
2022-10-05T09:04:45.178Z,14.40
2022-10-05T09:08:03.020Z,14.50
2022-10-05T09:10:47.858Z,14.50
2022-10-05T09:16:55.152Z,14.70
2022-10-05T09:19:38.425Z,14.90
2022-10-05T09:22:35.302Z,15.00
2022-10-05T09:25:16.396Z,15.00
2022-10-05T09:27:52.148Z,15.10
2022-10-05T09:30:27.427Z,14.90
2022-10-05T09:52:18.918Z,15.20
2022-10-05T09:54:51.183Z,15.10
2022-10-05T09:57:45.268Z,15.30
2022-10-05T10:00:59.537Z,15.60
2022-10-05T10:04:12.220Z,15.80
2022-10-05T10:06:48.387Z,15.80
2022-10-05T11:12:34.714Z,18.20
2022-10-05T11:15:10.270Z,18.30
2022-10-05T11:18:05.987Z,18.30
2022-10-05T11:20:55.406Z,18.20
2022-10-05T11:24:03.706Z,18.00
2022-10-05T11:59:45.567Z,18.50
2022-10-05T12:02:47.691Z,18.00
2022-10-05T12:05:29.499Z,17.90
2022-10-05T12:08:20.437Z,17.90
2022-10-05T12:11:28.294Z,18.00
2022-10-05T12:14:17.804Z,18.10
2022-10-05T12:43:04.413Z,17.70
2022-10-05T12:46:06.418Z,17.70
2022-10-05T12:49:14.994Z,17.70
2022-10-05T12:51:55.357Z,17.60
2022-10-05T12:54:35.435Z,17.70
2022-10-05T12:57:23.960Z,17.60
2022-10-05T13:05:47.910Z,17.70
2022-10-05T13:08:27.176Z,17.70
2022-10-05T13:11:12.598Z,17.80
2022-10-05T13:14:10.315Z,17.90
2022-10-05T13:16:44.329Z,17.90
2022-10-05T13:19:32.619Z,17.80
2022-10-05T13:25:36.769Z,17.60
2022-10-05T13:28:09.375Z,17.50
2022-10-05T13:30:39.188Z,17.40
2022-10-05T13:33:14.640Z,17.50
2022-10-05T13:36:10.276Z,17.50
2022-10-05T13:39:03.069Z,17.60
2022-10-05T13:41:38.515Z,17.60
2022-10-05T13:49:57.204Z,17.50
2022-10-05T13:52:42.557Z,17.30
2022-10-05T13:55:42.746Z,17.20
2022-10-05T13:58:20.874Z,17.10
2022-10-05T14:00:54.129Z,17.10
2022-10-05T14:03:34.081Z,17.10
2022-10-05T14:06:03.980Z,17.10
2022-10-05T14:13:48.267Z,17.00
2022-10-05T14:16:25.517Z,16.90
2022-10-05T14:19:17.821Z,17.00
2022-10-05T14:22:01.452Z,16.90
2022-10-05T14:24:43.676Z,16.90
2022-10-05T14:27:58.973Z,16.80
2022-10-05T14:43:33.977Z,16.90
2022-10-05T14:46:27.120Z,16.80
2022-10-05T14:49:23.437Z,16.70
2022-10-05T14:51:51.070Z,16.80
2022-10-05T14:54:22.711Z,16.70
2022-10-05T14:57:21.785Z,16.70
2022-10-05T15:03:56.322Z,16.60
2022-10-05T15:06:28.980Z,16.60
2022-10-05T15:09:36.582Z,16.60
2022-10-05T15:12:03.982Z,16.50
2022-10-05T15:14:35.065Z,16.50
2022-10-05T15:17:12.160Z,16.50
2022-10-05T15:35:54.250Z,16.40
2022-10-05T15:38:26.992Z,16.30
2022-10-05T15:41:23.669Z,16.30
2022-10-05T15:44:26.485Z,16.20
2022-10-05T15:47:05.111Z,16.10
2022-10-05T15:49:40.174Z,16.10
2022-10-05T15:52:24.970Z,16.10
2022-10-05T16:11:18.306Z,16.10
2022-10-05T16:13:59.048Z,16.00
2022-10-05T16:16:35.421Z,15.90
2022-10-05T16:19:17.033Z,15.90
2022-10-05T16:21:53.316Z,15.90
2022-10-05T16:24:41.838Z,15.80
2022-10-05T16:46:28.332Z,15.70
2022-10-05T16:49:16.647Z,15.70
2022-10-05T16:51:49.965Z,15.70
2022-10-05T16:54:23.501Z,15.70
2022-10-05T16:57:05.098Z,15.60
2022-10-05T16:59:31.491Z,15.60
2022-10-05T17:19:20.692Z,15.60
2022-10-05T17:22:31.543Z,15.60
2022-10-05T17:25:21.597Z,15.50
2022-10-05T17:27:55.142Z,15.50
2022-10-05T17:30:50.687Z,15.50
2022-10-05T19:15:17.601Z,14.60
2022-10-05T19:17:52.358Z,14.60
2022-10-05T19:20:28.211Z,14.50
2022-10-05T19:23:18.743Z,14.50
2022-10-05T19:25:47.812Z,14.50
2022-10-05T19:50:02.704Z,14.40
2022-10-05T19:52:46.337Z,14.40
2022-10-05T19:55:31.719Z,14.30
2022-10-05T19:58:01.896Z,14.30
2022-10-05T20:00:30.570Z,14.20
2022-10-05T20:03:22.661Z,14.20
2022-10-05T20:08:45.448Z,14.10
2022-10-05T20:11:22.596Z,14.00
2022-10-05T20:13:51.750Z,14.10
2022-10-05T20:16:47.158Z,14.00
2022-10-05T20:19:50.171Z,13.90
2022-10-05T20:22:45.505Z,13.90
2022-10-05T20:30:30.610Z,13.80
2022-10-05T20:33:03.793Z,13.80
2022-10-05T20:35:30.011Z,13.70
2022-10-05T20:37:59.001Z,13.70
2022-10-05T20:40:29.421Z,13.70
2022-10-05T20:42:57.570Z,13.70
2022-10-05T20:45:23.874Z,13.60
2022-10-05T20:54:17.306Z,13.50
2022-10-05T20:56:45.078Z,13.50
2022-10-05T20:59:12.679Z,13.50
2022-10-05T21:01:39.629Z,13.50
2022-10-05T21:04:06.223Z,13.50
2022-10-05T21:06:33.006Z,13.50
2022-10-05T21:08:59.231Z,13.40
2022-10-05T21:14:06.742Z,13.30
2022-10-05T21:16:37.337Z,13.30
2022-10-05T21:19:11.859Z,13.30
2022-10-05T21:21:39.713Z,13.20
2022-10-05T21:24:06.902Z,13.20
2022-10-05T21:26:33.657Z,13.10
2022-10-05T21:29:01.661Z,13.10
2022-10-05T21:36:31.502Z,13.00
2022-10-05T21:38:57.916Z,13.00
2022-10-05T21:41:24.373Z,13.00
2022-10-05T21:43:50.653Z,12.90
2022-10-05T21:46:20.810Z,12.80
2022-10-05T21:48:48.434Z,12.80
2022-10-05T21:51:18.125Z,12.70
2022-10-05T21:59:33.217Z,12.60
2022-10-05T22:02:00.050Z,12.50
2022-10-05T22:04:26.291Z,12.40
2022-10-05T22:06:54.801Z,12.30
2022-10-05T22:09:21.177Z,12.20
2022-10-05T22:11:48.172Z,12.10
2022-10-05T22:14:14.790Z,12.10
2022-10-05T22:22:11.115Z,11.70
2022-10-05T22:24:38.338Z,11.60
2022-10-05T22:27:04.743Z,11.50
2022-10-05T22:29:31.016Z,11.30
2022-10-05T22:31:57.503Z,11.30
2022-10-05T22:34:23.773Z,11.20
2022-10-05T22:36:50.142Z,11.00
2022-10-05T22:42:08.972Z,10.90
2022-10-05T22:44:35.578Z,10.80
2022-10-05T22:47:02.843Z,10.70
2022-10-05T22:49:29.237Z,10.70
2022-10-05T22:51:55.669Z,10.50
2022-10-05T22:54:24.325Z,10.50
2022-10-05T22:56:52.554Z,10.50
2022-10-05T23:12:21.948Z,10.30
2022-10-05T23:14:48.337Z,10.10
2022-10-05T23:17:20.235Z,10.10
2022-10-05T23:19:46.409Z,10.00
2022-10-05T23:22:12.760Z,10.00
2022-10-05T23:24:38.905Z,9.90
2022-10-05T23:27:05.287Z,9.90
2022-10-05T23:34:52.438Z,9.70
2022-10-05T23:37:21.896Z,9.80
2022-10-05T23:39:48.089Z,9.80
2022-10-05T23:42:14.259Z,9.80
2022-10-05T23:44:40.630Z,9.80
2022-10-05T23:47:06.780Z,9.80
2022-10-05T23:49:32.949Z,9.70
2022-10-05T23:54:39.886Z,9.80
2022-10-05T23:57:06.205Z,9.90
2022-10-05T23:59:32.369Z,9.90
